Time;durP1;ratioP1;P1;durP2;ratioP2;P2;SDS_P1;SDS_P2;PMS_P1;PMS_P2;Temp;Humidity;BMP_temperature;BMP_pressure;BME280_temperature;BME280_humidity;BME280_pressure;Samples;Min_cycle;Max_cycle;Signal;HPM_P1;HPM_P2
2022/01/12 00:01:38;;;;;;;32.27;17.13;;;;;;;2.51;82.67;103523.47;5067732;28;20052;-60
2022/01/12 00:04:03;;;;;;;29.20;17.37;;;;;;;2.51;82.94;103524.31;5064021;28;20028;-60
2022/01/12 00:06:29;;;;;;;32.37;17.23;;;;;;;2.50;82.94;103517.38;5060150;28;20507;-59
2022/01/12 00:08:54;;;;;;;29.80;17.57;;;;;;;2.50;82.96;103527.84;5067921;28;20075;-60
2022/01/12 00:11:21;;;;;;;30.00;18.23;;;;;;;2.50;82.89;103530.47;5049886;28;20041;-60
2022/01/12 00:13:51;;;;;;;31.33;17.20;;;;;;;2.46;83.14;103532.34;5068449;28;20048;-59
2022/01/12 00:16:16;;;;;;;29.70;17.77;;;;;;;2.47;82.83;103539.31;5062715;28;20095;-59
2022/01/12 00:18:44;;;;;;;30.70;17.60;;;;;;;2.50;83.15;103535.72;5067043;28;20112;-59
2022/01/12 00:21:09;;;;;;;28.83;17.37;;;;;;;2.50;83.00;103538.34;5061008;28;20020;-58
2022/01/12 00:23:34;;;;;;;31.20;18.10;;;;;;;2.49;83.19;103536.63;5067754;28;20032;-60
2022/01/12 00:26:04;;;;;;;31.03;18.30;;;;;;;2.46;83.36;103542.00;5068568;28;20035;-60
2022/01/12 00:34:01;;;;;;;34.13;18.70;;;;;;;2.29;84.26;103566.13;5061363;28;20059;-59
2022/01/12 00:36:28;;;;;;;35.63;20.03;;;;;;;2.23;84.80;103561.09;5071902;28;20410;-60
2022/01/12 00:38:54;;;;;;;36.57;19.70;;;;;;;2.17;85.58;103563.91;5070086;28;20021;-60
2022/01/12 00:41:20;;;;;;;39.17;20.77;;;;;;;2.11;85.98;103567.59;5072600;28;20364;-60
2022/01/12 00:43:49;;;;;;;35.93;20.93;;;;;;;2.10;86.45;103573.75;5071540;28;20031;-60
2022/01/12 00:46:15;;;;;;;42.23;21.27;;;;;;;2.06;87.03;103577.38;5072134;28;20027;-59
2022/01/12 00:48:41;;;;;;;36.63;21.00;;;;;;;2.04;87.49;103581.81;5070388;28;20115;-59
2022/01/12 00:51:07;;;;;;;37.63;21.80;;;;;;;2.03;87.95;103581.88;5072402;28;20085;-59
2022/01/12 00:53:33;;;;;;;43.13;23.13;;;;;;;2.01;88.20;103579.25;5071425;28;20024;-60
2022/01/12 00:55:58;;;;;;;43.07;22.70;;;;;;;1.99;88.61;103583.69;5071928;28;20029;-59
2022/01/12 00:58:23;;;;;;;43.70;23.37;;;;;;;1.99;88.92;103575.84;5071654;28;20064;-60
2022/01/12 01:00:49;;;;;;;43.43;23.27;;;;;;;1.95;89.25;103571.59;5070919;28;20557;-59
2022/01/12 01:03:15;;;;;;;40.97;23.60;;;;;;;1.92;89.35;103579.56;5070967;28;20065;-60
2022/01/12 01:05:41;;;;;;;45.00;24.50;;;;;;;1.88;89.64;103577.94;5067050;28;20380;-58
2022/01/12 01:08:06;;;;;;;47.57;24.70;;;;;;;1.87;90.12;103576.22;5075064;28;20054;-59
2022/01/12 01:12:57;;;;;;;47.77;24.53;;;;;;;1.82;90.52;103573.75;5071574;28;20495;-59
2022/01/12 01:15:53;;;;;;;45.40;24.57;;;;;;;1.79;90.78;103566.00;5064396;28;20024;-59
2022/01/12 01:26:32;;;;;;;53.30;26.10;;;;;;;1.70;91.71;103566.25;5071894;28;20552;-59
2022/01/12 01:28:57;;;;;;;51.23;26.93;;;;;;;1.70;91.93;103571.47;5069063;28;20036;-59
2022/01/12 01:31:30;;;;;;;49.80;27.10;;;;;;;1.70;92.26;103576.72;5071154;28;20033;-60
2022/01/12 01:33:55;;;;;;;55.50;26.30;;;;;;;1.70;92.39;103581.97;5071055;28;20032;-59
2022/01/12 01:36:21;;;;;;;50.90;27.00;;;;;;;1.72;92.42;103584.53;5071471;28;20036;-59
2022/01/12 01:38:46;;;;;;;51.43;27.30;;;;;;;1.72;92.72;103587.16;5070484;28;20135;-59
2022/01/12 01:41:11;;;;;;;51.10;27.60;;;;;;;1.72;92.75;103595.00;5071359;28;20024;-59
2022/01/12 01:43:54;;;;;;;56.00;28.17;;;;;;;1.73;92.79;103588.88;5066170;28;20096;-60
2022/01/12 01:54:32;;;;;;;55.43;27.97;;;;;;;1.75;93.33;103579.22;5070608;28;20039;-60
2022/01/12 01:56:57;;;;;;;56.27;27.97;;;;;;;1.74;93.23;103567.91;5070748;28;20025;-59
2022/01/12 01:59:22;;;;;;;52.80;29.97;;;;;;;1.73;93.54;103566.16;5069769;28;20047;-60
2022/01/12 02:01:48;;;;;;;59.13;29.70;;;;;;;1.70;93.54;103565.38;5069973;28;20059;-59
2022/01/12 02:04:13;;;;;;;56.30;28.33;;;;;;;1.71;93.82;103564.47;5066661;28;20404;-59
2022/01/12 02:06:39;;;;;;;59.53;29.37;;;;;;;1.71;93.54;103559.25;5065386;28;20075;-59
2022/01/12 02:09:05;;;;;;;54.53;29.13;;;;;;;1.72;93.80;103553.09;5062662;28;20032;-59
2022/01/12 02:11:31;;;;;;;58.60;29.27;;;;;;;1.72;93.76;103548.72;5065900;28;20436;-59
2022/01/12 02:13:56;;;;;;;59.80;30.13;;;;;;;1.74;93.83;103565.28;5068781;28;20067;-60
2022/01/12 02:16:29;;;;;;;51.73;28.80;;;;;;;1.74;93.92;103567.03;5062380;28;20030;-59
2022/01/12 02:40:54;;;;;;;64.43;32.20;;;;;;;1.73;94.49;103594.09;5065217;28;20078;-59
2022/01/12 02:53:48;;;;;;;74.30;35.40;;;;;;;1.74;94.72;103617.66;5068021;28;20032;-59
2022/01/12 02:56:20;;;;;;;66.77;34.07;;;;;;;1.77;94.97;103614.09;5067210;28;20028;-59
2022/01/12 02:58:47;;;;;;;71.47;35.70;;;;;;;1.77;94.84;103624.56;5067658;28;20324;-60
2022/01/12 03:01:40;;;;;;;71.23;35.70;;;;;;;1.77;94.81;103625.44;5067712;28;20020;-60
2022/01/12 03:04:08;;;;;;;70.70;35.97;;;;;;;1.77;94.88;103646.38;5065974;28;20119;-59
2022/01/12 03:06:37;;;;;;;71.70;34.07;;;;;;;1.74;94.98;103635.16;5067991;28;20398;-60
2022/01/12 03:09:09;;;;;;;66.38;34.60;;;;;;;1.75;94.75;103648.19;5066747;28;20024;-59
2022/01/12 03:11:36;;;;;;;71.73;36.07;;;;;;;1.75;94.84;103657.81;5063008;28;20043;-60
2022/01/12 03:14:02;;;;;;;70.53;35.83;;;;;;;1.75;95.06;103655.19;5063123;28;20475;-59
2022/01/12 03:16:29;;;;;;;71.33;35.73;;;;;;;1.73;94.82;103655.22;5066362;28;20032;-60
2022/01/12 03:18:56;;;;;;;74.40;35.73;;;;;;;1.74;94.90;103658.72;5065550;28;20111;-59
2022/01/12 03:21:25;;;;;;;69.03;34.90;;;;;;;1.76;95.04;103656.91;5065399;28;20147;-60
2022/01/12 03:23:51;;;;;;;70.03;35.87;;;;;;;1.77;95.00;103658.63;5065093;28;20071;-60
2022/01/12 03:26:16;;;;;;;71.83;35.90;;;;;;;1.78;94.89;103657.72;5067605;28;20494;-59
2022/01/12 03:28:43;;;;;;;72.90;35.73;;;;;;;1.78;94.95;103657.72;5066405;28;20029;-60
2022/01/12 03:33:53;;;;;;;69.47;35.53;;;;;;;1.76;95.14;103649.06;5061321;28;20032;-60
2022/01/12 03:39:10;;;;;;;76.90;37.20;;;;;;;1.82;95.01;103661.97;5065821;28;20036;-59
2022/01/12 03:41:36;;;;;;;70.73;36.47;;;;;;;1.82;95.40;103649.72;5062072;28;20111;-59
2022/01/12 03:44:06;;;;;;;71.90;37.13;;;;;;;1.84;95.27;103657.53;5066805;28;20074;-59
2022/01/12 03:46:50;;;;;;;76.10;36.53;;;;;;;1.86;95.20;103655.72;5067370;28;20028;-59
2022/01/12 03:49:17;;;;;;;68.47;35.73;;;;;;;1.88;95.36;103667.03;5064456;28;20125;-59
2022/01/12 03:51:43;;;;;;;71.87;35.63;;;;;;;1.88;95.17;103677.50;5067935;28;20071;-59
2022/01/12 03:54:09;;;;;;;69.13;35.53;;;;;;;1.89;95.16;103679.22;5063257;28;20125;-59
2022/01/12 03:56:35;;;;;;;72.87;37.43;;;;;;;1.89;95.20;103686.22;5067795;28;20463;-59
2022/01/12 03:59:00;;;;;;;73.37;37.87;;;;;;;1.86;94.94;103677.56;5066221;28;20037;-59
2022/01/12 04:01:26;;;;;;;74.20;36.37;;;;;;;1.86;95.13;103677.56;5067454;28;20484;-59
2022/01/12 04:04:00;;;;;;;83.10;39.23;;;;;;;1.85;95.35;103672.34;5067706;28;20032;-60
2022/01/12 04:09:10;;;;;;;75.13;39.07;;;;;;;1.85;95.36;103674.97;5059970;28;20146;-60
2022/01/12 04:11:36;;;;;;;75.60;37.57;;;;;;;1.85;95.36;103664.50;5066491;28;20495;-58
2022/01/12 04:14:01;;;;;;;76.53;38.20;;;;;;;1.83;95.54;103666.31;5064472;28;20035;-60
2022/01/12 04:16:26;;;;;;;76.80;38.23;;;;;;;1.85;95.62;103670.59;5071171;28;20129;-60
2022/01/12 04:18:51;;;;;;;73.80;38.20;;;;;;;1.85;95.58;103661.88;5069866;28;20410;-60
2022/01/12 04:21:24;;;;;;;71.63;38.10;;;;;;;1.85;95.53;103659.25;5070938;28;20027;-59
2022/01/12 04:23:49;;;;;;;71.80;36.83;;;;;;;1.83;95.54;103655.81;5064020;28;20039;-60
2022/01/12 04:26:15;;;;;;;75.50;37.63;;;;;;;1.81;95.70;103657.63;5071162;28;20024;-59
2022/01/12 04:28:44;;;;;;;75.90;37.73;;;;;;;1.82;95.57;103667.22;5067260;28;20036;-59
2022/01/12 04:31:11;;;;;;;75.57;37.20;;;;;;;1.82;95.71;103670.69;5069111;28;20475;-60
2022/01/12 04:33:37;;;;;;;72.57;37.83;;;;;;;1.80;95.88;103661.16;5067851;28;20028;-59
2022/01/12 04:36:04;;;;;;;72.07;37.60;;;;;;;1.82;95.79;103659.34;5068834;28;20036;-60
2022/01/12 04:38:33;;;;;;;75.33;37.97;;;;;;;1.83;95.95;103671.53;5064694;28;20020;-60
2022/01/12 04:40:59;;;;;;;74.88;38.13;;;;;;;1.80;95.96;103662.00;5071089;28;20055;-59
2022/01/12 04:43:25;;;;;;;72.80;36.97;;;;;;;1.84;96.09;103663.63;5068890;28;20028;-59
2022/01/12 04:50:46;;;;;;;71.07;38.13;;;;;;;1.87;96.22;103662.69;5070320;28;20119;-60
2022/01/12 04:53:13;;;;;;;70.07;37.17;;;;;;;1.88;95.92;103658.31;5068971;28;20071;-60
2022/01/12 04:55:39;;;;;;;69.37;36.73;;;;;;;1.85;96.08;103649.63;5070793;28;20031;-59
2022/01/12 04:58:06;;;;;;;69.37;37.47;;;;;;;1.85;96.17;103654.88;5070503;28;20058;-60
2022/01/12 05:00:33;;;;;;;72.13;39.27;;;;;;;1.84;96.10;103658.41;5069308;28;20025;-59
2022/01/12 05:13:38;;;;;;;76.00;38.27;;;;;;;1.88;96.39;103664.41;5065776;28;20098;-60
2022/01/12 05:16:05;;;;;;;74.87;37.90;;;;;;;1.91;96.53;103666.94;5073749;28;20093;-60
2022/01/12 05:18:32;;;;;;;76.63;38.00;;;;;;;1.90;96.36;103665.22;5066791;28;20111;-59
2022/01/12 05:20:58;;;;;;;75.73;37.37;;;;;;;1.94;96.64;103664.22;5067081;28;20032;-58
2022/01/12 05:23:23;;;;;;;67.30;37.20;;;;;;;1.95;96.60;103665.94;5070050;28;20012;-59
2022/01/12 05:25:51;;;;;;;76.30;36.83;;;;;;;1.94;96.43;103658.97;5070021;28;20451;-59
2022/01/12 05:28:17;;;;;;;74.67;36.47;;;;;;;1.90;96.51;103659.97;5070438;28;20454;-60
2022/01/12 05:30:42;;;;;;;72.97;37.40;;;;;;;1.94;96.26;103672.06;5068547;28;20484;-59
2022/01/12 05:33:08;;;;;;;78.77;40.13;;;;;;;1.95;96.34;103680.78;5069639;28;20028;-58
2022/01/12 05:35:34;;;;;;;75.87;38.63;;;;;;;1.96;96.40;103688.63;5069324;28;20020;-60
2022/01/12 05:38:01;;;;;;;72.73;37.60;;;;;;;1.97;96.55;103682.47;5069676;28;21383;-60
2022/01/12 05:40:27;;;;;;;82.67;39.57;;;;;;;1.99;96.49;103687.66;5069297;28;20089;-59
2022/01/12 05:42:54;;;;;;;80.47;38.07;;;;;;;2.00;96.58;103692.84;5068519;28;20024;-60
2022/01/12 05:45:21;;;;;;;78.70;39.47;;;;;;;1.98;96.64;103684.19;5070028;28;20540;-60
2022/01/12 05:49:34;;;;;;;77.17;39.03;;;;;;;1.99;96.55;103683.28;5069932;28;20406;-59
2022/01/12 05:50:31;;;;;;;81.00;38.57;;;;;;;1.99;96.80;103682.41;5064327;28;20214;-60
2022/01/12 05:52:57;;;;;;;81.53;40.17;;;;;;;1.98;96.71;103678.94;5069398;28;20125;-60
2022/01/12 05:55:22;;;;;;;78.47;38.57;;;;;;;1.96;96.77;103678.13;5070241;28;20020;-60
2022/01/12 05:57:48;;;;;;;81.17;39.00;;;;;;;1.96;96.77;103688.63;5069470;28;20060;-60
2022/01/12 06:00:16;;;;;;;82.87;39.70;;;;;;;1.95;96.80;103681.66;5068721;28;20486;-60
2022/01/12 06:02:41;;;;;;;82.77;40.17;;;;;;;1.96;96.64;103680.75;5067164;28;20020;-60
2022/01/12 06:05:08;;;;;;;83.27;41.30;;;;;;;1.94;96.90;103681.72;5069138;28;20111;-59
2022/01/12 06:07:33;;;;;;;84.87;40.90;;;;;;;1.96;96.97;103687.75;5068998;28;20058;-60
2022/01/12 06:09:59;;;;;;;82.00;38.93;;;;;;;1.96;97.17;103693.84;5068647;28;20024;-59
2022/01/12 06:12:24;;;;;;;81.40;39.07;;;;;;;1.97;96.99;103700.81;5065708;28;20024;-60
2022/01/12 06:14:49;;;;;;;89.43;42.07;;;;;;;1.98;97.07;103696.44;5069655;28;20506;-59
2022/01/12 06:17:15;;;;;;;82.70;40.47;;;;;;;1.98;96.85;103705.16;5069407;28;20025;-59
2022/01/12 06:19:40;;;;;;;80.33;39.30;;;;;;;2.00;96.98;103713.81;5068592;28;20055;-59
2022/01/12 06:22:06;;;;;;;85.73;40.20;;;;;;;1.99;97.04;103716.50;5068487;28;20024;-59
2022/01/12 06:24:32;;;;;;;92.10;42.07;;;;;;;1.99;97.00;103716.50;5069056;28;20103;-60
2022/01/12 06:26:59;;;;;;;85.37;40.47;;;;;;;1.99;97.14;103725.22;5069000;28;20178;-60
2022/01/12 06:29:38;;;;;;;82.43;39.87;;;;;;;1.99;97.03;103735.69;5068250;28;20033;-60
2022/01/12 06:32:04;;;;;;;86.32;40.03;;;;;;;1.97;97.25;103728.78;5068350;28;20021;-60
2022/01/12 06:34:29;;;;;;;87.07;40.87;;;;;;;1.98;97.21;103735.75;5065358;28;20078;-59
2022/01/12 06:36:54;;;;;;;86.87;40.40;;;;;;;1.99;97.15;103732.22;5068785;28;20056;-60
2022/01/12 06:39:22;;;;;;;91.17;41.30;;;;;;;2.00;97.12;103747.03;5067988;28;20033;-59
2022/01/12 06:41:51;;;;;;;87.30;42.70;;;;;;;2.00;97.25;103758.38;5068627;28;20047;-59
2022/01/12 06:44:20;;;;;;;90.13;41.93;;;;;;;2.01;97.27;103759.25;5064770;28;20476;-59
2022/01/12 06:46:47;;;;;;;89.90;41.47;;;;;;;2.02;97.39;103755.72;5058925;28;20024;-61
2022/01/12 06:49:13;;;;;;;92.10;42.07;;;;;;;2.03;97.34;103755.69;5067278;28;20021;-60
2022/01/12 06:51:39;;;;;;;93.43;42.20;;;;;;;2.05;97.40;103756.50;5063203;28;20160;-60
2022/01/12 06:54:05;;;;;;;92.57;42.37;;;;;;;2.07;97.51;103757.31;5067008;28;20054;-60
2022/01/12 06:56:31;;;;;;;89.77;41.13;;;;;;;2.08;97.23;103761.66;5045054;28;20040;-60
2022/01/12 06:58:56;;;;;;;90.70;41.83;;;;;;;2.07;97.47;103751.22;5060865;28;20495;-59
2022/01/12 07:01:22;;;;;;;90.10;42.77;;;;;;;2.08;97.44;103756.41;5063755;28;20027;-60
2022/01/12 07:03:48;;;;;;;89.33;42.03;;;;;;;2.10;97.42;103762.47;5063643;28;20129;-60
2022/01/12 07:06:13;;;;;;;95.23;42.40;;;;;;;2.10;97.47;103762.47;5064591;28;20835;-60
2022/01/12 07:08:39;;;;;;;94.87;43.10;;;;;;;2.15;97.57;103786.78;5063970;28;20028;-60
2022/01/12 07:11:04;;;;;;;89.27;41.93;;;;;;;2.13;97.57;103772.88;5031077;28;20020;-60
2022/01/12 07:13:30;;;;;;;94.70;41.83;;;;;;;2.13;97.34;103775.50;5058287;28;20029;-60
2022/01/12 07:15:55;;;;;;;91.20;41.47;;;;;;;2.12;97.53;103772.91;5064251;28;20028;-60
2022/01/12 07:18:21;;;;;;;89.57;41.33;;;;;;;2.13;97.29;103785.13;5064813;28;20036;-59
2022/01/12 07:20:47;;;;;;;91.60;40.07;;;;;;;2.15;97.51;103785.94;5064024;28;20369;-58
2022/01/12 07:23:12;;;;;;;90.03;40.93;;;;;;;2.17;97.54;103778.88;5070808;28;20027;-59
2022/01/12 07:25:37;;;;;;;88.03;40.63;;;;;;;2.18;97.39;103783.22;5071936;28;20120;-60
2022/01/12 07:28:03;;;;;;;89.03;39.93;;;;;;;2.17;97.53;103786.75;5061595;28;20536;-59
2022/01/12 07:30:28;;;;;;;88.57;39.00;;;;;;;2.17;97.49;103798.09;5062014;28;20020;-59
2022/01/12 07:32:54;;;;;;;94.50;40.57;;;;;;;2.20;97.29;103805.00;5068089;28;20029;-60
2022/01/12 07:35:19;;;;;;;93.37;39.97;;;;;;;2.21;97.43;103803.25;5067387;28;20027;-60
2022/01/12 07:37:45;;;;;;;96.23;39.90;;;;;;;2.21;97.30;103803.25;5056482;28;20025;-59
2022/01/12 07:40:11;;;;;;;110.33;41.60;;;;;;;2.25;97.13;103805.72;5068249;28;20395;-60
2022/01/12 07:42:36;;;;;;;101.87;41.00;;;;;;;2.26;97.24;103814.47;5067965;28;20031;-59
2022/01/12 07:45:01;;;;;;;104.53;41.13;;;;;;;2.26;97.34;103822.31;5069266;28;20025;-59
2022/01/12 07:47:28;;;;;;;106.57;42.23;;;;;;;2.28;97.17;103826.63;5063154;28;20064;-59
2022/01/12 07:49:55;;;;;;;117.30;42.07;;;;;;;2.28;97.54;103826.63;5057037;28;20040;-59
2022/01/12 07:52:21;;;;;;;126.20;41.23;;;;;;;2.29;97.51;103833.56;5064799;28;20033;-60
2022/01/12 07:54:46;;;;;;;120.50;42.63;;;;;;;2.33;97.43;103844.88;5065070;28;20446;-59
2022/01/12 07:57:11;;;;;;;138.23;43.60;;;;;;;2.35;97.74;103849.16;5068579;28;20038;-60
2022/01/12 07:59:37;;;;;;;160.20;43.53;;;;;;;2.37;97.51;103852.59;5067383;28;20063;-59
2022/01/12 08:02:02;;;;;;;172.20;44.30;;;;;;;2.41;97.61;103854.22;5068724;28;20051;-60
2022/01/12 08:04:27;;;;;;;159.43;42.27;;;;;;;2.41;97.62;103862.09;5066503;28;20028;-60
2022/01/12 08:06:53;;;;;;;164.57;43.90;;;;;;;2.43;97.41;103862.91;5068311;28;20483;-60
2022/01/12 08:09:18;;;;;;;201.03;44.27;;;;;;;2.43;97.75;103862.91;5067523;28;20185;-59
2022/01/12 08:11:43;;;;;;;160.10;45.10;;;;;;;2.46;97.46;103864.59;5068359;28;20078;-60
2022/01/12 08:14:09;;;;;;;177.87;43.73;;;;;;;2.47;97.57;103869.78;5064781;28;20025;-60
2022/01/12 08:16:34;;;;;;;224.03;45.53;;;;;;;2.47;97.92;103872.41;5078417;28;20558;-60
2022/01/12 08:18:59;;;;;;;196.67;44.20;;;;;;;2.49;97.49;103864.50;5067168;28;20031;-60
2022/01/12 08:21:27;;;;;;;211.10;43.17;;;;;;;2.49;97.73;103867.13;5054079;28;20510;-60
2022/01/12 08:23:52;;;;;;;166.27;43.27;;;;;;;2.52;97.83;103881.91;5060541;28;20017;-60
2022/01/12 08:26:17;;;;;;;172.80;43.87;;;;;;;2.54;97.84;103878.34;5066214;28;20107;-60
2022/01/12 08:28:43;;;;;;;132.37;42.57;;;;;;;2.57;98.11;103878.25;5066358;28;20032;-60
2022/01/12 08:31:08;;;;;;;188.13;43.17;;;;;;;2.60;97.90;103874.66;5065638;28;20412;-60
2022/01/12 08:33:33;;;;;;;179.57;44.67;;;;;;;2.64;97.89;103876.31;5067013;28;20027;-59
2022/01/12 08:35:59;;;;;;;119.33;40.53;;;;;;;2.66;98.16;103871.88;5070942;28;20012;-59
2022/01/12 08:38:24;;;;;;;160.77;39.90;;;;;;;2.72;98.04;103879.56;5063134;28;20028;-60
2022/01/12 08:40:50;;;;;;;99.00;33.23;;;;;;;2.76;98.23;103876.81;5068892;28;20027;-60
2022/01/12 08:43:15;;;;;;;110.50;31.90;;;;;;;2.81;98.15;103876.66;5060416;28;20048;-60
2022/01/12 08:45:41;;;;;;;100.07;30.10;;;;;;;2.83;98.15;103874.00;5075029;28;20027;-60
2022/01/12 08:48:06;;;;;;;98.30;30.03;;;;;;;2.85;98.36;103886.16;5069982;28;20035;-60
2022/01/12 08:50:32;;;;;;;89.10;31.53;;;;;;;2.90;98.16;103884.28;5065745;28;20028;-59
2022/01/12 08:52:57;;;;;;;94.37;32.13;;;;;;;2.94;97.97;103874.56;5066563;28;20383;-60
2022/01/12 08:55:23;;;;;;;102.03;31.90;;;;;;;2.94;98.41;103880.66;5071895;28;20024;-60
2022/01/12 08:57:50;;;;;;;182.50;32.73;;;;;;;2.99;98.34;103896.28;5071917;28;20040;-60
2022/01/12 09:00:18;;;;;;;117.13;31.57;;;;;;;3.02;98.11;103901.41;5062844;28;20618;-60
2022/01/12 09:02:44;;;;;;;91.10;31.13;;;;;;;3.05;98.76;103901.31;5062577;28;20060;-60
2022/01/12 09:05:11;;;;;;;86.63;29.57;;;;;;;3.07;98.24;103912.63;5055712;28;20457;-60
2022/01/12 09:07:38;;;;;;;90.37;30.70;;;;;;;3.09;98.22;103916.06;5058965;28;20056;-60
2022/01/12 09:10:04;;;;;;;86.50;29.93;;;;;;;3.10;98.11;103923.03;5070518;28;20016;-60
2022/01/12 09:12:29;;;;;;;88.10;30.67;;;;;;;3.10;97.94;103925.66;5064077;28;20028;-60
2022/01/12 09:14:54;;;;;;;81.70;29.80;;;;;;;3.15;98.04;103926.38;5077170;28;20016;-59
2022/01/12 09:17:23;;;;;;;79.00;29.17;;;;;;;3.17;98.02;103931.59;5073148;28;20047;-60
2022/01/12 09:19:49;;;;;;;83.47;29.57;;;;;;;3.19;97.78;103933.28;5067143;28;20036;-60
2022/01/12 09:22:15;;;;;;;77.83;28.47;;;;;;;3.21;97.61;103926.22;5065369;28;20119;-60
2022/01/12 09:24:42;;;;;;;77.20;28.30;;;;;;;3.24;98.28;103931.38;5074470;28;20032;-60
2022/01/12 09:27:07;;;;;;;82.17;29.47;;;;;;;3.25;97.52;103935.72;5061837;28;20464;-60
2022/01/12 09:29:33;;;;;;;76.70;28.43;;;;;;;3.29;97.55;103931.22;5066073;28;20031;-58
2022/01/12 09:31:58;;;;;;;76.40;27.83;;;;;;;3.31;97.38;103943.41;5075770;28;20106;-60
2022/01/12 09:34:23;;;;;;;83.63;29.73;;;;;;;3.34;97.56;103945.06;5077506;28;20191;-60
2022/01/12 09:36:49;;;;;;;79.93;28.73;;;;;;;3.37;97.58;103953.72;5071076;28;20473;-60
2022/01/12 09:39:14;;;;;;;78.10;29.00;;;;;;;3.38;97.17;103951.94;5063010;28;20047;-60
2022/01/12 09:41:39;;;;;;;81.77;29.53;;;;;;;3.38;97.10;103950.19;5064372;28;20029;-60
2022/01/12 09:44:05;;;;;;;77.13;28.93;;;;;;;3.40;97.23;103951.00;5067251;28;20035;-59
2022/01/12 09:46:31;;;;;;;77.80;28.63;;;;;;;3.43;96.84;103964.03;5068095;28;20031;-60
2022/01/12 09:48:59;;;;;;;81.03;30.37;;;;;;;3.45;96.98;103956.09;5060996;28;20035;-60
2022/01/12 09:51:25;;;;;;;78.73;30.30;;;;;;;3.48;96.90;103966.53;5067869;28;20037;-60
2022/01/12 09:53:52;;;;;;;77.93;30.67;;;;;;;3.51;97.10;103968.22;5064215;28;20049;-60
2022/01/12 09:56:21;;;;;;;75.77;29.60;;;;;;;3.53;96.84;103969.03;5062191;28;20051;-59
2022/01/12 09:58:51;;;;;;;72.70;28.67;;;;;;;3.52;96.95;103976.03;5058908;28;20557;-60
2022/01/12 10:01:54;;;;;;;75.30;28.67;;;;;;;3.57;96.58;103989.03;5063723;28;20035;-60
2022/01/12 10:04:24;;;;;;;72.17;29.33;;;;;;;3.55;96.52;103991.72;4998164;28;20193;-60
2022/01/12 10:07:05;;;;;;;73.27;28.43;;;;;;;3.62;96.68;104000.25;5048684;28;20040;-59
2022/01/12 10:09:33;;;;;;;70.80;28.20;;;;;;;3.60;96.77;103994.19;5063764;28;20100;-60
2022/01/12 10:12:01;;;;;;;61.47;25.80;;;;;;;3.60;96.57;103999.44;5061965;28;20032;-60
2022/01/12 10:14:45;;;;;;;65.00;26.73;;;;;;;3.60;96.27;104000.31;5065156;28;20028;-59
2022/01/12 10:17:12;;;;;;;65.00;25.23;;;;;;;3.59;96.15;103995.97;5065173;28;20020;-60
2022/01/12 10:19:38;;;;;;;66.77;26.47;;;;;;;3.59;96.17;103997.72;5073879;28;20024;-60
2022/01/12 10:22:07;;;;;;;68.97;25.87;;;;;;;3.58;96.02;103991.63;5069878;28;20017;-60
2022/01/12 10:24:37;;;;;;;66.27;26.47;;;;;;;3.62;95.68;103981.88;5072582;28;20043;-59
2022/01/12 10:27:19;;;;;;;67.97;27.67;;;;;;;3.62;95.90;103974.84;5065269;28;20299;-60
2022/01/12 10:29:46;;;;;;;64.57;26.37;;;;;;;3.63;95.55;103973.06;5066437;28;20119;-60
2022/01/12 10:32:17;;;;;;;70.53;27.87;;;;;;;3.64;95.45;103977.41;5074100;28;20078;-60
2022/01/12 10:34:46;;;;;;;66.70;27.07;;;;;;;3.65;95.35;103971.25;5066115;28;20032;-59
2022/01/12 10:37:13;;;;;;;63.42;26.13;;;;;;;3.67;95.21;103982.56;5059174;28;20035;-60
2022/01/12 10:39:44;;;;;;;65.63;26.70;;;;;;;3.70;95.45;103987.72;5064129;28;20052;-60
2022/01/12 10:42:13;;;;;;;65.83;26.80;;;;;;;3.74;95.20;103987.56;5053097;28;20484;-60
2022/01/12 10:44:40;;;;;;;68.40;27.80;;;;;;;3.77;95.14;103991.03;5066922;28;20024;-60
2022/01/12 10:47:19;;;;;;;68.47;28.37;;;;;;;3.81;95.17;103988.25;5060503;28;20056;-60
2022/01/12 10:50:15;;;;;;;70.43;28.00;;;;;;;3.83;95.10;103983.81;5066481;28;20387;-60
2022/01/12 10:53:18;;;;;;;65.60;27.60;;;;;;;3.85;95.20;103975.88;5073833;28;20028;-60
2022/01/12 10:58:27;;;;;;;72.63;28.20;;;;;;;3.88;94.96;103978.41;5062352;28;20480;-59
2022/01/12 11:00:52;;;;;;;66.40;28.37;;;;;;;3.91;95.18;103979.16;5063462;28;20633;-60
2022/01/12 11:03:37;;;;;;;66.43;27.77;;;;;;;3.97;94.98;103988.59;5059327;28;20032;-59
2022/01/12 11:06:03;;;;;;;67.10;27.97;;;;;;;3.86;94.77;103965.31;5059822;28;20033;-60
2022/01/12 11:11:50;;;;;;;65.17;27.63;;;;;;;3.98;94.62;103987.69;5057262;28;20058;-59
2022/01/12 11:14:34;;;;;;;67.47;27.43;;;;;;;4.00;94.65;103986.72;5061029;28;20028;-59
2022/01/12 11:16:59;;;;;;;60.70;26.47;;;;;;;3.94;94.30;103976.44;5059081;28;20386;-59
2022/01/12 11:23:04;;;;;;;57.07;25.73;;;;;;;4.01;94.11;103995.47;5066477;28;20042;-60
2022/01/12 11:45:05;;;;;;;60.93;26.80;;;;;;;4.10;93.51;103975.94;5056447;28;20098;-60
2022/01/12 12:33:14;;;;;;;58.17;27.13;;;;;;;4.13;92.33;103978.47;5062340;28;20036;-60
2022/01/12 12:35:41;;;;;;;64.67;28.07;;;;;;;4.02;92.00;103974.41;5069315;28;20028;-60
2022/01/12 12:47:58;;;;;;;57.20;25.43;;;;;;;3.90;91.61;103948.53;5076943;28;20411;-60
2022/01/12 12:50:44;;;;;;;60.57;26.17;;;;;;;3.91;91.79;103954.63;5078128;28;20032;-60
2022/01/12 12:56:17;;;;;;;58.80;26.60;;;;;;;4.04;92.12;103961.19;5074969;28;20058;-60
2022/01/12 12:58:50;;;;;;;63.30;25.75;;;;;;;4.08;91.95;103951.47;5070276;28;20040;-60
2022/01/12 13:01:17;;;;;;;54.20;25.27;;;;;;;3.92;91.45;103937.94;5061337;28;20029;-59
2022/01/12 13:03:54;;;;;;;49.23;24.43;;;;;;;3.91;91.37;103949.38;5061075;28;20030;-60
2022/01/12 13:06:28;;;;;;;58.93;24.70;;;;;;;3.92;91.34;103961.63;5074060;28;20684;-60
2022/01/12 13:08:54;;;;;;;60.60;24.60;;;;;;;3.97;91.28;103965.81;5073001;28;20066;-62
2022/01/12 13:11:27;;;;;;;57.23;25.70;;;;;;;4.01;91.62;103963.94;5060897;28;20036;-62
2022/01/12 13:14:01;;;;;;;60.03;26.00;;;;;;;4.11;91.85;103967.13;5061270;28;20116;-62
2022/01/12 13:16:27;;;;;;;61.77;26.50;;;;;;;4.16;91.99;103965.19;5081136;28;20028;-62
2022/01/12 13:19:04;;;;;;;54.17;25.13;;;;;;;4.10;91.63;103961.00;5068781;28;20406;-62
2022/01/12 13:21:31;;;;;;;55.07;25.97;;;;;;;4.18;91.71;103968.63;5062905;28;20040;-62
2022/01/12 13:23:58;;;;;;;59.63;26.07;;;;;;;4.21;91.71;103969.38;5067501;28;20024;-62
2022/01/12 13:26:25;;;;;;;67.47;26.60;;;;;;;4.26;91.54;103971.84;5061283;28;20032;-62
2022/01/12 13:28:51;;;;;;;60.73;26.37;;;;;;;4.20;91.48;103970.31;5062697;28;20264;-62
2022/01/12 13:31:19;;;;;;;60.03;26.07;;;;;;;4.03;91.26;103965.59;5063447;28;20036;-62
2022/01/12 13:33:50;;;;;;;55.90;25.00;;;;;;;4.02;91.02;103981.41;5061009;28;20050;-61
2022/01/12 13:36:30;;;;;;;59.83;25.23;;;;;;;3.93;90.85;103985.22;5061020;28;20058;-63
2022/01/12 13:38:58;;;;;;;;;;;;;;;3.97;91.15;103989.47;5071402;28;20032;-62
2022/01/12 13:41:27;;;;;;;60.37;25.00;;;;;;;3.94;91.11;103991.34;5065445;28;19920;-63
2022/01/12 13:44:01;;;;;;;60.10;25.87;;;;;;;3.97;91.40;103983.34;5062062;28;20028;-62
2022/01/12 13:46:39;;;;;;;55.60;25.13;;;;;;;3.94;91.43;103984.31;5059916;28;20585;-62
2022/01/12 13:49:21;;;;;;;59.13;25.03;;;;;;;3.88;91.34;103988.91;5061609;28;20491;-63
2022/01/12 13:52:02;;;;;;;58.77;23.77;;;;;;;3.84;91.48;103987.31;5060130;28;20062;-60
2022/01/12 13:54:30;;;;;;;54.07;23.03;;;;;;;3.75;91.24;103980.56;5059777;28;20022;-60
2022/01/12 13:56:57;;;;;;;51.03;23.13;;;;;;;3.71;91.75;103973.69;5060063;28;20060;-59
2022/01/12 13:59:28;;;;;;;55.70;23.23;;;;;;;3.72;91.67;103976.25;5059751;28;20028;-60
2022/01/12 14:01:54;;;;;;;53.63;21.90;;;;;;;3.71;91.42;103968.41;5058456;28;20104;-60
2022/01/12 14:04:32;;;;;;;48.87;22.63;;;;;;;3.70;91.53;103966.69;5058706;28;20274;-60
2022/01/12 14:07:02;;;;;;;51.33;22.20;;;;;;;3.70;91.26;103971.97;5061092;28;20028;-60
2022/01/12 14:09:34;;;;;;;57.40;22.73;;;;;;;3.70;91.15;103971.97;5067722;28;20195;-60